createdAt,value
2022-12-03T00:02:25.520Z,10.20
2022-12-03T00:04:52.147Z,11.23
2022-12-03T00:07:18.698Z,11.60
2022-12-03T00:09:44.984Z,10.88
2022-12-03T00:12:11.336Z,10.95
2022-12-03T00:14:42.892Z,10.88
2022-12-03T00:17:10.787Z,10.85
2022-12-03T00:19:37.080Z,10.80
2022-12-03T00:22:03.396Z,11.07
2022-12-03T00:24:29.703Z,11.77
2022-12-03T00:26:55.945Z,11.88
2022-12-03T00:29:22.147Z,10.88
2022-12-03T00:31:48.412Z,10.18
2022-12-03T00:34:14.707Z,10.20
2022-12-03T00:36:41.061Z,9.55
2022-12-03T00:39:07.307Z,10.68
2022-12-03T00:41:33.634Z,10.45
2022-12-03T00:43:59.847Z,10.32
2022-12-03T00:46:26.392Z,10.15
2022-12-03T00:48:52.662Z,11.95
2022-12-03T00:51:18.948Z,9.95
2022-12-03T00:53:45.415Z,10.13
2022-12-03T00:56:11.654Z,10.60
2022-12-03T00:58:37.883Z,9.80
2022-12-03T01:01:04.172Z,12.63
2022-12-03T01:03:30.718Z,10.35
2022-12-03T01:05:56.972Z,10.27
2022-12-03T01:08:23.240Z,10.10
2022-12-03T01:10:49.464Z,10.25
2022-12-03T01:13:15.689Z,9.80
2022-12-03T01:15:42.065Z,10.18
2022-12-03T01:18:08.403Z,11.23
2022-12-03T01:20:36.329Z,9.90
2022-12-03T01:23:02.646Z,10.63
2022-12-03T01:25:28.908Z,12.27
2022-12-03T01:27:57.045Z,10.82
2022-12-03T01:30:23.303Z,9.27
2022-12-03T01:32:49.631Z,10.70
2022-12-03T01:35:15.915Z,10.73
2022-12-03T01:37:42.215Z,11.63
2022-12-03T01:40:11.161Z,9.75
2022-12-03T01:42:40.197Z,9.50
2022-12-03T01:45:06.903Z,8.95
2022-12-03T01:47:34.800Z,9.88
2022-12-03T01:50:04.513Z,10.13
2022-12-03T01:52:32.463Z,8.25
2022-12-03T01:55:00.095Z,11.10
2022-12-03T01:57:28.110Z,10.65
2022-12-03T01:59:55.699Z,8.10
2022-12-03T02:02:25.990Z,8.70
2022-12-03T02:04:55.682Z,9.48
2022-12-03T02:07:23.840Z,9.07
2022-12-03T02:09:50.319Z,9.18
2022-12-03T02:12:17.733Z,8.98
2022-12-03T02:14:44.063Z,9.70
2022-12-03T02:17:10.854Z,9.90
2022-12-03T02:19:37.206Z,10.23
2022-12-03T02:22:13.256Z,8.38
2022-12-03T02:24:46.982Z,10.00
2022-12-03T02:27:13.224Z,8.77
2022-12-03T02:29:39.640Z,8.45
2022-12-03T02:32:05.977Z,10.02
2022-12-03T02:34:36.582Z,9.32
2022-12-03T02:37:04.121Z,10.95
2022-12-03T02:39:30.755Z,9.05
2022-12-03T02:42:15.639Z,8.00
2022-12-03T02:44:42.050Z,9.60
2022-12-03T02:47:08.511Z,10.50
2022-12-03T02:49:34.863Z,10.13
2022-12-03T02:52:01.175Z,9.95
2022-12-03T02:54:27.526Z,9.02
2022-12-03T02:56:53.797Z,9.02
2022-12-03T02:59:20.086Z,9.32
2022-12-03T03:01:46.423Z,8.70
2022-12-03T03:04:12.963Z,8.98
2022-12-03T03:06:39.258Z,9.38
2022-12-03T03:09:05.495Z,10.27
2022-12-03T03:11:31.764Z,8.10
2022-12-03T03:13:58.040Z,9.38
2022-12-03T03:16:24.411Z,9.05
2022-12-03T03:18:50.752Z,8.93
2022-12-03T03:21:17.310Z,8.68
2022-12-03T03:23:43.515Z,8.65
2022-12-03T03:26:10.332Z,9.85
2022-12-03T03:28:42.339Z,9.52
2022-12-03T03:31:09.819Z,9.48
2022-12-03T03:33:37.289Z,9.45
2022-12-03T03:36:03.757Z,8.38
2022-12-03T03:38:30.362Z,10.52
2022-12-03T03:40:58.011Z,8.40
2022-12-03T03:43:24.816Z,8.95
2022-12-03T03:45:52.185Z,9.32
2022-12-03T03:48:18.830Z,8.98
2022-12-03T03:50:45.541Z,8.52
2022-12-03T03:53:12.534Z,8.63
2022-12-03T03:55:39.345Z,9.18
2022-12-03T03:58:05.657Z,9.23
2022-12-03T04:00:32.070Z,8.55
2022-12-03T04:02:58.394Z,10.07
2022-12-03T04:05:25.038Z,10.32
2022-12-03T04:07:51.296Z,8.27
2022-12-03T04:10:36.434Z,9.82
2022-12-03T04:13:03.258Z,8.48
2022-12-03T04:15:29.622Z,8.85
2022-12-03T04:18:14.761Z,10.63
2022-12-03T04:20:41.361Z,9.63
2022-12-03T04:23:08.034Z,9.32
2022-12-03T04:25:53.123Z,9.45
2022-12-03T04:28:37.990Z,9.50
2022-12-03T04:31:23.190Z,10.73
2022-12-03T04:34:08.052Z,9.32
2022-12-03T04:36:34.385Z,9.60
2022-12-03T04:39:00.736Z,8.80
2022-12-03T04:41:27.106Z,8.27
2022-12-03T04:44:12.327Z,9.60
2022-12-03T04:46:38.625Z,8.73
2022-12-03T04:49:04.910Z,10.98
2022-12-03T04:51:31.167Z,9.07
2022-12-03T04:53:57.412Z,9.48
2022-12-03T04:56:23.669Z,9.65
2022-12-03T04:58:49.902Z,9.15
2022-12-03T05:01:16.366Z,9.95
2022-12-03T05:03:42.720Z,9.25
2022-12-03T05:06:08.951Z,10.05
2022-12-03T05:08:35.169Z,9.20
2022-12-03T05:11:01.447Z,9.45
2022-12-03T05:13:27.765Z,9.52
2022-12-03T05:15:55.505Z,7.65
2022-12-03T05:18:21.946Z,10.07
2022-12-03T05:20:53.318Z,9.77
2022-12-03T05:23:20.016Z,8.90
2022-12-03T05:25:46.237Z,8.15
2022-12-03T05:28:13.735Z,9.52
2022-12-03T05:30:40.658Z,8.13
2022-12-03T05:33:07.020Z,9.57
2022-12-03T05:35:33.308Z,8.98
2022-12-03T05:37:59.625Z,9.38
2022-12-03T05:40:26.000Z,8.70
2022-12-03T05:42:56.629Z,8.57
2022-12-03T05:45:27.556Z,9.13
2022-12-03T05:47:54.497Z,9.57
2022-12-03T05:50:21.799Z,8.43
2022-12-03T05:52:48.093Z,9.85
2022-12-03T05:55:14.369Z,8.25
2022-12-03T05:57:40.949Z,9.27
2022-12-03T06:00:09.514Z,8.57
2022-12-03T06:02:35.884Z,9.77
2022-12-03T06:05:19.382Z,8.93
2022-12-03T06:07:46.293Z,9.68
2022-12-03T06:10:14.113Z,7.80
2022-12-03T06:12:40.437Z,7.93
2022-12-03T06:15:07.208Z,9.05
2022-12-03T06:17:33.510Z,9.25
2022-12-03T06:19:59.763Z,9.50
2022-12-03T06:22:26.019Z,9.85
2022-12-03T06:24:52.661Z,9.95
2022-12-03T06:27:19.153Z,8.77
2022-12-03T06:29:45.550Z,9.10
2022-12-03T06:32:12.224Z,8.50
2022-12-03T06:34:38.538Z,9.15
2022-12-03T06:37:04.762Z,10.18
2022-12-03T06:39:31.037Z,8.93
2022-12-03T06:41:57.341Z,8.88
2022-12-03T06:44:23.585Z,10.65
2022-12-03T06:46:49.854Z,8.90
2022-12-03T06:49:16.421Z,9.02
2022-12-03T06:51:44.660Z,9.60
2022-12-03T06:54:10.955Z,9.77
2022-12-03T06:56:44.682Z,10.43
2022-12-03T06:59:11.625Z,8.05
2022-12-03T07:01:38.004Z,7.85
2022-12-03T07:04:04.390Z,9.32
2022-12-03T07:06:30.667Z,7.40
2022-12-03T07:08:56.898Z,8.48
2022-12-03T07:11:32.343Z,9.90
2022-12-03T07:14:04.748Z,9.40
2022-12-03T07:16:32.077Z,8.57
2022-12-03T07:18:58.386Z,9.93
2022-12-03T07:21:24.735Z,8.88
2022-12-03T07:23:51.115Z,8.35
2022-12-03T07:26:17.587Z,9.52
2022-12-03T07:28:43.883Z,7.90
2022-12-03T07:31:10.300Z,10.80
2022-12-03T07:33:36.703Z,10.75
2022-12-03T07:36:03.082Z,11.02
2022-12-03T07:38:29.381Z,18.35
2022-12-03T07:40:55.702Z,10.73
2022-12-03T07:43:22.083Z,14.05
2022-12-03T07:45:48.411Z,10.45
2022-12-03T07:48:14.821Z,12.45
2022-12-03T07:50:41.125Z,10.23
2022-12-03T07:53:07.406Z,12.25
2022-12-03T07:55:33.717Z,8.85
2022-12-03T07:57:59.996Z,11.70
2022-12-03T08:00:26.322Z,11.82
2022-12-03T08:02:52.803Z,10.32
2022-12-03T08:05:19.100Z,11.23
2022-12-03T08:07:45.492Z,11.77
2022-12-03T08:10:11.861Z,10.95
2022-12-03T08:12:41.550Z,13.25
2022-12-03T08:15:11.080Z,12.70
2022-12-03T08:17:39.219Z,13.02
2022-12-03T08:20:16.411Z,12.25
2022-12-03T08:22:43.797Z,10.82
2022-12-03T08:25:13.724Z,13.70
2022-12-03T08:27:40.030Z,13.32
2022-12-03T08:30:06.911Z,11.82
2022-12-03T08:32:33.182Z,13.90
2022-12-03T08:35:00.994Z,13.10
2022-12-03T08:37:27.263Z,17.48
2022-12-03T08:39:54.597Z,14.13
2022-12-03T08:42:43.474Z,14.55
2022-12-03T08:45:28.725Z,13.30
2022-12-03T08:47:56.202Z,13.57
2022-12-03T08:50:27.310Z,14.00
2022-12-03T08:52:54.824Z,12.00
2022-12-03T08:55:37.357Z,13.45
2022-12-03T08:58:21.315Z,13.77
2022-12-03T09:00:47.982Z,12.90
2022-12-03T09:03:16.468Z,11.30
2022-12-03T09:05:42.757Z,12.38
2022-12-03T09:08:09.119Z,13.52
2022-12-03T09:10:35.472Z,12.68
2022-12-03T09:13:01.783Z,11.60
2022-12-03T09:15:28.362Z,11.70
2022-12-03T09:17:54.600Z,12.90
2022-12-03T09:20:20.970Z,12.77
2022-12-03T09:22:47.264Z,14.10
2022-12-03T09:25:13.707Z,12.38
2022-12-03T09:27:39.951Z,12.45
2022-12-03T09:30:06.470Z,11.68
2022-12-03T09:32:32.849Z,12.70
2022-12-03T09:34:59.143Z,13.65
2022-12-03T09:37:25.643Z,14.00
2022-12-03T09:39:51.882Z,11.98
2022-12-03T09:42:18.281Z,13.57
2022-12-03T09:44:44.643Z,12.88
2022-12-03T09:47:10.951Z,10.13
2022-12-03T09:49:38.204Z,12.77
2022-12-03T09:52:05.597Z,11.80
2022-12-03T09:54:32.544Z,10.27
2022-12-03T09:57:02.718Z,12.43
2022-12-03T09:59:33.279Z,11.95
2022-12-03T10:02:00.135Z,11.10
2022-12-03T10:04:27.475Z,13.43
2022-12-03T10:06:54.009Z,10.50
2022-12-03T10:09:28.114Z,12.52
2022-12-03T10:11:58.795Z,12.15
2022-12-03T10:14:25.604Z,11.93
2022-12-03T10:16:52.060Z,9.73
2022-12-03T10:19:29.068Z,11.98
2022-12-03T10:21:55.717Z,10.68
2022-12-03T10:24:25.760Z,11.93
2022-12-03T10:26:53.109Z,11.13
2022-12-03T10:29:20.994Z,11.93
2022-12-03T10:31:56.540Z,12.60
2022-12-03T10:34:31.423Z,10.35
2022-12-03T10:37:14.991Z,10.93
2022-12-03T10:40:17.026Z,11.55
2022-12-03T10:42:43.280Z,11.13
2022-12-03T10:45:14.860Z,10.38
2022-12-03T10:47:42.037Z,11.40
2022-12-03T10:50:16.464Z,11.73
2022-12-03T10:52:42.939Z,15.05
2022-12-03T10:55:10.749Z,13.15
2022-12-03T10:57:39.991Z,10.77
2022-12-03T11:00:14.771Z,9.45
2022-12-03T11:02:41.076Z,11.88
2022-12-03T11:05:07.590Z,11.82
2022-12-03T11:07:34.111Z,11.00
2022-12-03T11:10:01.963Z,12.27
2022-12-03T11:12:29.303Z,10.38
2022-12-03T11:14:56.491Z,11.15
2022-12-03T11:17:41.774Z,11.50
2022-12-03T11:20:23.336Z,12.82
2022-12-03T11:22:50.423Z,11.52
2022-12-03T11:25:27.258Z,11.30
2022-12-03T11:28:11.862Z,9.95
2022-12-03T11:30:53.680Z,10.35
2022-12-03T11:33:27.054Z,12.98
2022-12-03T11:36:02.452Z,12.80
2022-12-03T11:38:38.086Z,11.50
2022-12-03T11:41:08.612Z,15.37
2022-12-03T11:43:53.204Z,10.70
2022-12-03T11:46:21.178Z,10.18
2022-12-03T11:48:48.115Z,12.88
2022-12-03T11:51:15.571Z,12.00
2022-12-03T11:53:42.331Z,14.18
2022-12-03T11:56:13.680Z,11.30
2022-12-03T11:58:42.329Z,9.48
2022-12-03T12:01:09.002Z,12.68
2022-12-03T12:03:36.509Z,12.70
2022-12-03T12:06:07.175Z,12.95
2022-12-03T12:08:37.463Z,11.75
2022-12-03T12:11:04.166Z,12.10
2022-12-03T12:13:30.548Z,10.05
2022-12-03T12:16:00.790Z,12.20
2022-12-03T12:18:36.484Z,11.55
2022-12-03T12:21:21.538Z,10.83
2022-12-03T12:23:47.902Z,10.65
2022-12-03T12:26:14.127Z,10.77
2022-12-03T12:28:40.398Z,10.55
2022-12-03T12:31:12.772Z,12.38
2022-12-03T12:33:41.899Z,12.80
2022-12-03T12:36:09.027Z,12.32
2022-12-03T12:38:35.315Z,14.07
2022-12-03T12:41:04.977Z,12.68
2022-12-03T12:43:32.876Z,11.25
2022-12-03T12:46:39.109Z,10.95
2022-12-03T12:48:59.817Z,11.52
2022-12-03T12:51:26.298Z,9.75
2022-12-03T12:53:53.527Z,9.95
2022-12-03T12:56:23.303Z,11.95
2022-12-03T12:58:49.811Z,10.52
2022-12-03T13:01:19.798Z,12.07
2022-12-03T13:03:49.355Z,12.00
2022-12-03T13:06:15.919Z,9.30
2022-12-03T13:08:44.034Z,10.90
2022-12-03T13:11:30.582Z,11.27
2022-12-03T13:13:56.865Z,14.98
2022-12-03T13:16:26.341Z,11.05
2022-12-03T13:18:57.010Z,12.50
2022-12-03T13:21:39.972Z,12.38
2022-12-03T13:24:25.024Z,11.80
2022-12-03T13:26:51.246Z,12.32
2022-12-03T13:29:19.387Z,11.00
2022-12-03T13:31:51.666Z,11.82
2022-12-03T13:34:22.142Z,13.98
2022-12-03T13:36:55.487Z,11.63
2022-12-03T13:39:35.304Z,13.52
2022-12-03T13:42:26.701Z,9.77
2022-12-03T13:44:53.314Z,11.98
2022-12-03T13:47:21.232Z,14.57
2022-12-03T13:49:52.478Z,9.57
2022-12-03T13:52:20.510Z,12.30
2022-12-03T13:54:48.906Z,10.80
2022-12-03T13:57:15.154Z,13.82
2022-12-03T13:59:41.470Z,10.25
2022-12-03T14:02:09.328Z,11.60
2022-12-03T14:04:35.863Z,10.98
2022-12-03T14:07:02.139Z,12.88
2022-12-03T14:09:28.466Z,12.93
2022-12-03T14:12:13.457Z,13.20
2022-12-03T14:14:39.763Z,11.93
2022-12-03T14:17:06.565Z,11.30
2022-12-03T14:19:32.919Z,12.40
2022-12-03T14:22:00.341Z,14.20
2022-12-03T14:24:26.855Z,15.15
2022-12-03T14:26:53.075Z,11.80
2022-12-03T14:29:19.367Z,13.10
2022-12-03T14:31:45.805Z,13.13
2022-12-03T14:34:12.113Z,13.65
2022-12-03T14:36:38.476Z,11.82
2022-12-03T14:39:04.727Z,15.00
2022-12-03T14:41:49.595Z,13.85
2022-12-03T14:44:16.001Z,14.40
2022-12-03T14:46:42.304Z,15.13
2022-12-03T14:49:08.560Z,13.85
2022-12-03T14:51:34.788Z,12.63
2022-12-03T14:54:01.185Z,12.05
2022-12-03T14:56:27.499Z,14.05
2022-12-03T14:58:53.715Z,15.32
2022-12-03T15:01:20.017Z,11.65
2022-12-03T15:03:46.350Z,13.23
2022-12-03T15:06:12.637Z,12.50
2022-12-03T15:08:38.929Z,14.25
2022-12-03T15:11:05.309Z,14.40
2022-12-03T15:13:31.610Z,14.07
2022-12-03T15:15:57.937Z,14.45
2022-12-03T15:18:24.189Z,15.88
2022-12-03T15:20:50.512Z,15.20
2022-12-03T15:23:16.727Z,14.35
2022-12-03T15:25:43.050Z,14.88
2022-12-03T15:28:09.654Z,14.98
2022-12-03T15:30:36.117Z,14.75
2022-12-03T15:33:02.711Z,16.77
2022-12-03T15:35:31.854Z,18.13
2022-12-03T15:37:58.236Z,18.20
2022-12-03T15:40:25.318Z,18.73
2022-12-03T15:42:51.719Z,19.80
2022-12-03T15:45:18.329Z,18.98
2022-12-03T15:47:44.667Z,20.08
2022-12-03T15:50:11.088Z,19.65
2022-12-03T15:52:37.306Z,19.45
2022-12-03T15:55:03.632Z,21.10
2022-12-03T15:57:29.954Z,21.13
2022-12-03T15:59:56.496Z,21.83
2022-12-03T16:02:23.130Z,20.60
2022-12-03T16:04:49.542Z,21.13
2022-12-03T16:07:15.762Z,19.80
2022-12-03T16:09:41.989Z,20.42
2022-12-03T16:12:08.264Z,21.45
2022-12-03T16:14:34.547Z,20.35
2022-12-03T16:17:00.960Z,25.77
2022-12-03T16:19:27.249Z,21.95
2022-12-03T16:21:53.788Z,22.77
2022-12-03T16:24:20.031Z,24.88
2022-12-03T16:26:46.307Z,25.95
2022-12-03T16:29:12.555Z,24.92
2022-12-03T16:31:38.921Z,23.42
2022-12-03T16:34:05.209Z,22.08
2022-12-03T16:36:31.486Z,21.35
2022-12-03T16:38:58.039Z,20.25
2022-12-03T16:41:24.334Z,19.42
2022-12-03T16:43:50.650Z,17.70
2022-12-03T16:46:17.033Z,16.45
2022-12-03T16:48:43.590Z,16.73
2022-12-03T16:51:10.556Z,15.80
2022-12-03T16:53:37.133Z,18.85
2022-12-03T16:56:03.371Z,18.02
2022-12-03T16:58:29.651Z,18.23
2022-12-03T17:00:55.961Z,16.98
2022-12-03T17:03:22.632Z,17.63
2022-12-03T17:05:49.298Z,15.98
2022-12-03T17:08:16.115Z,18.10
2022-12-03T17:10:43.311Z,17.45
2022-12-03T17:13:10.533Z,16.77
2022-12-03T17:15:37.251Z,17.70
2022-12-03T17:18:03.894Z,16.92
2022-12-03T17:20:31.139Z,21.02
2022-12-03T17:22:58.071Z,17.45
2022-12-03T17:25:24.375Z,15.23
2022-12-03T17:27:50.687Z,15.32
2022-12-03T17:30:17.798Z,16.67
2022-12-03T17:32:44.247Z,17.83
2022-12-03T17:35:11.342Z,17.05
2022-12-03T17:37:37.741Z,19.27
2022-12-03T17:40:05.148Z,19.50
2022-12-03T17:42:31.398Z,19.33
2022-12-03T17:44:57.634Z,17.35
2022-12-03T17:47:24.083Z,17.88
2022-12-03T17:49:50.372Z,18.00
2022-12-03T17:52:16.695Z,17.88
2022-12-03T17:55:09.035Z,15.65
2022-12-03T17:57:29.247Z,19.70
2022-12-03T17:59:55.834Z,18.20
2022-12-03T18:02:22.295Z,18.85
2022-12-03T18:04:48.655Z,17.42
2022-12-03T18:07:15.194Z,20.50
2022-12-03T18:09:42.124Z,19.33
2022-12-03T18:12:08.393Z,17.00
2022-12-03T18:14:34.658Z,20.58
2022-12-03T18:17:00.907Z,18.52
2022-12-03T18:19:27.148Z,19.88
2022-12-03T18:21:53.683Z,17.85
2022-12-03T18:24:19.923Z,16.83
2022-12-03T18:26:46.149Z,21.42
2022-12-03T18:29:12.447Z,19.02
2022-12-03T18:31:38.748Z,15.05
2022-12-03T18:34:05.049Z,19.40
2022-12-03T18:36:33.730Z,18.70
2022-12-03T18:39:01.020Z,18.88
2022-12-03T18:41:27.538Z,16.02
2022-12-03T18:43:54.006Z,19.50
2022-12-03T18:49:06.934Z,20.25
2022-12-03T18:51:33.216Z,18.33
2022-12-03T18:53:59.506Z,19.80
2022-12-03T18:56:25.762Z,14.75
2022-12-03T18:58:52.029Z,16.70
2022-12-03T19:01:20.390Z,19.58
2022-12-03T19:03:46.809Z,18.50
2022-12-03T19:06:19.079Z,18.08
2022-12-03T19:08:45.671Z,17.73
2022-12-03T19:11:13.255Z,17.13
2022-12-03T19:13:39.957Z,16.60
2022-12-03T19:16:07.072Z,17.88
2022-12-03T19:18:33.432Z,16.20
2022-12-03T19:20:59.863Z,16.98
2022-12-03T19:23:26.334Z,19.20
2022-12-03T19:25:56.343Z,17.23
2022-12-03T19:28:22.629Z,17.60
2022-12-03T19:30:55.585Z,16.13
2022-12-03T19:33:28.058Z,18.08
2022-12-03T19:35:55.374Z,15.60
2022-12-03T19:38:25.471Z,16.58
2022-12-03T19:40:58.828Z,16.67
2022-12-03T19:43:25.211Z,17.02
2022-12-03T19:45:51.591Z,16.13
2022-12-03T19:48:18.108Z,17.60
2022-12-03T19:51:02.901Z,16.17
2022-12-03T19:53:38.139Z,15.77
2022-12-03T19:56:06.058Z,17.13
2022-12-03T19:58:32.612Z,17.23
2022-12-03T20:01:09.290Z,15.82
2022-12-03T20:03:39.785Z,16.45
2022-12-03T20:06:06.331Z,18.25
2022-12-03T20:08:32.635Z,18.77
2022-12-03T20:11:15.284Z,16.35
2022-12-03T20:13:42.167Z,16.67
2022-12-03T20:16:12.078Z,18.08
2022-12-03T20:18:42.693Z,17.23
2022-12-03T20:21:09.883Z,15.98
2022-12-03T20:23:36.544Z,15.25
2022-12-03T20:26:06.719Z,17.42
2022-12-03T20:28:33.174Z,15.30
2022-12-03T20:31:00.305Z,17.70
2022-12-03T20:33:26.586Z,16.17
2022-12-03T20:35:56.839Z,13.95
2022-12-03T20:38:26.594Z,16.50
2022-12-03T20:40:53.913Z,17.10
2022-12-03T20:43:20.438Z,14.13
2022-12-03T20:45:46.773Z,15.75
2022-12-03T20:48:13.128Z,17.08
2022-12-03T20:50:39.413Z,15.07
2022-12-03T20:53:23.882Z,14.07
2022-12-03T20:55:55.189Z,18.42
2022-12-03T20:58:21.466Z,16.50
2022-12-03T21:00:47.764Z,15.55
2022-12-03T21:03:14.075Z,15.38
2022-12-03T21:05:40.662Z,14.25
2022-12-03T21:08:06.989Z,15.00
2022-12-03T21:10:36.073Z,16.75
2022-12-03T21:13:02.555Z,14.98
2022-12-03T21:15:28.970Z,16.75
2022-12-03T21:17:55.298Z,13.57
2022-12-03T21:20:21.733Z,15.57
2022-12-03T21:22:51.690Z,14.38
2022-12-03T21:25:18.005Z,12.65
2022-12-03T21:27:44.294Z,14.20
2022-12-03T21:30:10.727Z,15.70
2022-12-03T21:32:37.011Z,15.35
2022-12-03T21:35:03.304Z,17.17
2022-12-03T21:37:29.939Z,14.75
2022-12-03T21:39:56.362Z,15.65
2022-12-03T21:42:35.593Z,15.80
2022-12-03T21:45:03.776Z,14.30
2022-12-03T21:47:37.011Z,14.45
2022-12-03T21:50:05.050Z,13.38
2022-12-03T21:52:32.008Z,13.85
2022-12-03T21:54:58.267Z,13.63
2022-12-03T21:57:24.527Z,14.50
2022-12-03T21:59:50.842Z,13.43
2022-12-03T22:02:17.435Z,13.75
2022-12-03T22:04:43.824Z,15.75
2022-12-03T22:07:10.074Z,13.38
2022-12-03T22:09:36.376Z,16.17
2022-12-03T22:12:03.433Z,14.02
2022-12-03T22:14:30.042Z,14.80
2022-12-03T22:16:56.358Z,15.00
2022-12-03T22:19:23.183Z,12.70
2022-12-03T22:21:49.447Z,13.52
2022-12-03T22:24:15.898Z,14.88
2022-12-03T22:26:42.440Z,13.52
2022-12-03T22:29:09.833Z,12.90
2022-12-03T22:31:36.175Z,13.77
2022-12-03T22:34:02.943Z,13.38
2022-12-03T22:36:29.224Z,12.80
2022-12-03T22:38:55.478Z,14.35
2022-12-03T22:41:21.854Z,12.80
2022-12-03T22:43:48.504Z,12.52
2022-12-03T22:46:15.258Z,12.77
2022-12-03T22:48:42.101Z,13.50
2022-12-03T22:51:16.410Z,12.63
2022-12-03T22:53:42.745Z,13.25
2022-12-03T22:56:09.047Z,13.90
2022-12-03T22:58:37.139Z,14.35
2022-12-03T23:01:03.640Z,12.95
2022-12-03T23:03:30.132Z,14.43
2022-12-03T23:05:56.764Z,11.65
2022-12-03T23:08:23.147Z,12.60
2022-12-03T23:10:50.520Z,14.95
2022-12-03T23:13:17.524Z,14.32
2022-12-03T23:15:45.172Z,13.95
2022-12-03T23:18:11.509Z,14.95
2022-12-03T23:20:44.224Z,15.18
2022-12-03T23:23:10.532Z,13.52
2022-12-03T23:25:37.417Z,16.17
2022-12-03T23:28:04.009Z,13.45
2022-12-03T23:30:30.270Z,13.85
2022-12-03T23:32:56.576Z,13.75
2022-12-03T23:35:23.138Z,12.07
2022-12-03T23:37:49.417Z,15.13
2022-12-03T23:40:15.765Z,13.13
2022-12-03T23:42:42.012Z,15.07
2022-12-03T23:45:08.655Z,12.95
2022-12-03T23:47:34.906Z,12.85
2022-12-03T23:50:01.187Z,13.10
2022-12-03T23:52:27.478Z,13.98
2022-12-03T23:54:53.747Z,14.65
2022-12-03T23:57:20.051Z,14.25
2022-12-03T23:59:46.334Z,12.90
